createdAt,value
2022-08-17T00:00:43.835Z,16.64
2022-08-17T00:03:17.508Z,16.61
2022-08-17T00:05:50.134Z,16.56
2022-08-17T00:08:24.080Z,16.50
2022-08-17T00:10:54.560Z,16.43
2022-08-17T00:13:31.751Z,16.36
2022-08-17T00:16:04.969Z,16.29
2022-08-17T00:19:01.222Z,16.26
2022-08-17T00:21:25.245Z,16.24
2022-08-17T00:23:56.276Z,16.24
2022-08-17T00:26:43.180Z,16.20
2022-08-17T00:29:19.621Z,16.23
2022-08-17T00:31:48.931Z,16.29
2022-08-17T00:34:17.610Z,16.39
2022-08-17T00:36:46.034Z,16.39
2022-08-17T00:39:15.660Z,16.40
2022-08-17T00:41:43.952Z,16.37
2022-08-17T00:44:12.815Z,16.35
2022-08-17T00:46:44.550Z,16.23
2022-08-17T00:49:15.507Z,15.99
2022-08-17T00:51:51.242Z,15.83
2022-08-17T00:54:28.743Z,15.67
2022-08-17T00:57:03.740Z,15.53
2022-08-17T00:59:38.427Z,15.49
2022-08-17T01:02:10.435Z,15.49
2022-08-17T01:04:39.989Z,15.54
2022-08-17T01:07:11.286Z,15.58
2022-08-17T01:09:42.990Z,15.60
2022-08-17T01:12:13.203Z,15.52
2022-08-17T01:14:42.808Z,15.50
2022-08-17T01:17:11.699Z,15.44
2022-08-17T01:19:43.425Z,15.45
2022-08-17T01:22:23.521Z,15.65
2022-08-17T01:24:57.330Z,15.73
2022-08-17T01:27:26.737Z,15.85
2022-08-17T01:30:03.834Z,15.86
2022-08-17T01:32:32.703Z,15.90
2022-08-17T01:35:01.772Z,15.97
2022-08-17T01:37:36.437Z,16.12
2022-08-17T01:40:14.312Z,16.24
2022-08-17T01:42:49.859Z,16.26
2022-08-17T01:45:25.091Z,16.23
2022-08-17T01:47:54.336Z,16.16
2022-08-17T01:50:27.708Z,16.12
2022-08-17T01:53:06.157Z,16.05
2022-08-17T01:55:47.997Z,16.20
2022-08-17T01:58:16.702Z,16.09
2022-08-17T02:01:01.066Z,16.12
2022-08-17T02:03:31.949Z,16.37
2022-08-17T02:06:00.453Z,16.49
2022-08-17T02:08:39.218Z,16.58
2022-08-17T02:11:14.589Z,16.46
2022-08-17T02:13:43.118Z,16.34
2022-08-17T02:16:11.826Z,16.30
2022-08-17T02:18:40.518Z,16.27
2022-08-17T02:21:10.144Z,16.17
2022-08-17T02:23:45.563Z,16.01
2022-08-17T02:26:23.994Z,15.79
2022-08-17T02:28:54.870Z,15.66
2022-08-17T02:31:23.231Z,15.61
2022-08-17T02:34:04.054Z,15.63
2022-08-17T02:36:34.524Z,15.77
2022-08-17T02:39:06.911Z,15.83
2022-08-17T02:41:36.534Z,15.71
2022-08-17T02:44:06.787Z,15.56
2022-08-17T02:46:35.364Z,15.35
2022-08-17T02:49:04.546Z,15.23
2022-08-17T02:51:33.112Z,15.16
2022-08-17T02:54:39.097Z,15.07
2022-08-17T02:56:51.054Z,15.04
2022-08-17T02:59:19.413Z,15.05
2022-08-17T03:01:47.763Z,15.02
2022-08-17T03:04:16.062Z,15.04
2022-08-17T03:06:44.317Z,15.11
2022-08-17T03:09:13.202Z,15.22
2022-08-17T03:11:41.546Z,15.28
2022-08-17T03:14:11.181Z,15.34
2022-08-17T03:16:41.293Z,15.45
2022-08-17T03:19:10.845Z,15.58
2022-08-17T03:21:39.137Z,15.66
2022-08-17T03:24:09.274Z,15.66
2022-08-17T03:26:37.729Z,15.68
2022-08-17T03:29:05.989Z,15.73
2022-08-17T03:31:37.112Z,15.84
2022-08-17T03:34:05.938Z,15.86
2022-08-17T03:36:36.010Z,15.80
2022-08-17T03:39:05.531Z,15.83
2022-08-17T03:41:34.519Z,15.88
2022-08-17T03:44:02.897Z,15.90
2022-08-17T03:46:49.177Z,15.85
2022-08-17T03:49:36.100Z,15.86
2022-08-17T03:52:22.333Z,15.78
2022-08-17T03:55:08.421Z,15.73
2022-08-17T03:57:36.813Z,15.66
2022-08-17T04:00:07.696Z,15.54
2022-08-17T04:02:40.429Z,15.51
2022-08-17T04:05:10.725Z,15.47
2022-08-17T04:07:38.973Z,15.40
2022-08-17T04:10:08.900Z,15.39
2022-08-17T04:12:48.452Z,15.36
2022-08-17T04:15:18.456Z,15.40
2022-08-17T04:17:46.808Z,15.45
2022-08-17T04:20:20.194Z,15.50
2022-08-17T04:23:03.156Z,15.52
2022-08-17T04:25:36.398Z,15.42
2022-08-17T04:28:07.718Z,15.33
2022-08-17T04:30:46.005Z,15.24
2022-08-17T04:33:17.260Z,15.30
2022-08-17T04:35:50.093Z,15.47
2022-08-17T04:38:22.671Z,15.55
2022-08-17T04:41:09.937Z,15.58
2022-08-17T04:43:41.626Z,15.47
2022-08-17T04:46:15.006Z,15.44
2022-08-17T04:48:46.201Z,15.43
2022-08-17T04:51:19.758Z,15.43
2022-08-17T04:53:54.658Z,15.45
2022-08-17T04:56:26.214Z,15.49
2022-08-17T04:58:58.171Z,15.57
2022-08-17T05:01:30.022Z,15.65
2022-08-17T05:04:32.853Z,15.81
2022-08-17T05:06:54.662Z,16.00
2022-08-17T05:09:23.054Z,16.20
2022-08-17T05:11:52.679Z,16.30
2022-08-17T05:14:33.194Z,16.32
2022-08-17T05:17:09.388Z,16.35
2022-08-17T05:19:39.881Z,16.39
2022-08-17T05:22:09.643Z,16.35
2022-08-17T05:24:42.633Z,16.43
2022-08-17T05:27:19.262Z,16.57
2022-08-17T05:29:47.544Z,16.71
2022-08-17T05:32:39.110Z,16.91
2022-08-17T05:35:05.531Z,17.20
2022-08-17T05:37:35.223Z,17.54
2022-08-17T05:40:03.628Z,17.86
2022-08-17T05:42:32.369Z,18.14
2022-08-17T05:45:00.640Z,18.39
2022-08-17T05:47:31.178Z,18.69
2022-08-17T05:50:00.490Z,18.97
2022-08-17T05:52:44.641Z,19.32
2022-08-17T05:55:24.849Z,19.70
2022-08-17T05:58:15.421Z,19.98
2022-08-17T06:00:56.595Z,20.20
2022-08-17T06:03:45.576Z,20.50
2022-08-17T06:06:32.443Z,20.68
2022-08-17T06:09:28.925Z,21.37
2022-08-17T06:12:21.513Z,21.95
2022-08-17T06:15:10.789Z,22.45
2022-08-17T06:17:39.854Z,23.01
2022-08-17T06:20:13.173Z,23.00
2022-08-17T06:22:48.968Z,22.93
2022-08-17T06:25:27.497Z,23.17
2022-08-17T06:28:03.861Z,23.69
2022-08-17T06:31:00.081Z,24.16
2022-08-17T06:33:36.328Z,24.67
2022-08-17T06:36:28.078Z,24.99
2022-08-17T06:39:13.869Z,25.34
2022-08-17T06:41:57.434Z,25.64
2022-08-17T06:44:50.204Z,25.99
2022-08-17T06:47:35.098Z,25.85
2022-08-17T06:50:19.411Z,26.13
2022-08-17T06:52:58.593Z,26.26
2022-08-17T06:55:37.926Z,26.52
2022-08-17T06:58:15.923Z,26.70
2022-08-17T07:00:49.912Z,26.71
2022-08-17T07:03:33.375Z,26.41
2022-08-17T07:06:09.429Z,26.38
2022-08-17T07:08:52.194Z,26.75
2022-08-17T07:11:32.542Z,26.92
2022-08-17T07:14:28.406Z,27.06
2022-08-17T07:17:02.799Z,27.51
2022-08-17T07:19:36.030Z,27.34
2022-08-17T07:22:19.031Z,27.34
2022-08-17T07:24:53.651Z,27.39
2022-08-17T07:27:27.548Z,27.64
2022-08-17T07:30:10.231Z,28.04
2022-08-17T07:32:45.271Z,28.49
2022-08-17T07:35:21.066Z,28.48
2022-08-17T07:37:55.586Z,28.38
2022-08-17T07:40:33.465Z,28.12
2022-08-17T07:43:21.998Z,28.34
2022-08-17T07:46:23.366Z,28.73
2022-08-17T07:48:56.972Z,29.14
2022-08-17T07:51:30.351Z,29.30
2022-08-17T07:54:14.229Z,29.45
2022-08-17T07:56:48.725Z,29.57
2022-08-17T07:59:23.461Z,29.69
2022-08-17T08:02:38.221Z,30.27
2022-08-17T08:05:14.235Z,30.34
2022-08-17T08:08:02.837Z,30.21
2022-08-17T08:10:38.523Z,30.46
2022-08-17T08:13:22.955Z,30.61
2022-08-17T08:15:55.220Z,30.57
2022-08-17T08:18:55.015Z,30.92
2022-08-17T08:21:34.332Z,31.14
2022-08-17T08:24:37.279Z,31.68
2022-08-17T08:27:22.163Z,31.54
2022-08-17T08:29:56.445Z,31.43
2022-08-17T08:32:48.587Z,31.71
2022-08-17T08:35:32.450Z,32.11
2022-08-17T08:38:16.395Z,31.98
2022-08-17T08:41:03.407Z,31.48
2022-08-17T08:43:52.856Z,32.09
2022-08-17T08:46:36.251Z,32.24
2022-08-17T08:50:37.395Z,32.63
2022-08-17T08:53:04.719Z,33.03
2022-08-17T08:55:50.197Z,32.86
2022-08-17T08:58:31.344Z,33.16
2022-08-17T09:01:16.602Z,33.76
2022-08-17T09:04:23.227Z,33.70
2022-08-17T09:07:08.493Z,33.75
2022-08-17T09:09:54.212Z,33.22
2022-08-17T09:12:37.383Z,33.32
2022-08-17T09:15:17.650Z,34.29
2022-08-17T09:18:28.479Z,33.96
2022-08-17T09:20:56.430Z,34.40
2022-08-17T09:23:34.722Z,34.82
2022-08-17T09:26:18.113Z,35.00
2022-08-17T09:28:52.397Z,34.95
2022-08-17T09:31:31.255Z,34.56
2022-08-17T09:34:09.689Z,34.77
2022-08-17T09:36:46.583Z,35.11
2022-08-17T09:39:30.656Z,35.40
2022-08-17T09:42:11.851Z,35.49
2022-08-17T09:44:50.041Z,35.71
2022-08-17T09:47:31.701Z,35.44
2022-08-17T09:50:14.643Z,35.78
2022-08-17T09:52:44.785Z,35.55
2022-08-17T09:55:13.231Z,35.63
2022-08-17T09:58:10.797Z,35.05
2022-08-17T10:00:53.134Z,35.74
2022-08-17T10:04:00.846Z,35.75
2022-08-17T10:06:36.517Z,35.74
2022-08-17T10:09:18.759Z,35.52
2022-08-17T10:12:17.209Z,34.48
2022-08-17T10:15:09.722Z,33.49
2022-08-17T10:17:55.557Z,33.83
2022-08-17T10:20:31.171Z,34.09
2022-08-17T10:23:25.571Z,34.24
2022-08-17T10:26:16.534Z,35.12
2022-08-17T10:28:52.759Z,35.47
2022-08-17T10:31:36.445Z,36.15
2022-08-17T10:34:45.917Z,36.21
2022-08-17T10:37:40.627Z,36.67
2022-08-17T10:40:36.148Z,36.50
2022-08-17T10:43:26.659Z,36.01
2022-08-17T10:46:09.279Z,36.57
2022-08-17T10:49:26.002Z,36.05
2022-08-17T10:51:56.781Z,37.27
2022-08-17T10:54:39.424Z,37.00
2022-08-17T10:57:39.946Z,37.75
2022-08-17T11:00:44.618Z,36.92
2022-08-17T11:03:22.147Z,36.68
2022-08-17T11:06:07.062Z,35.37
2022-08-17T11:09:20.863Z,36.11
2022-08-17T11:12:12.222Z,36.79
2022-08-17T11:15:00.416Z,37.10
2022-08-17T11:18:22.403Z,36.47
2022-08-17T11:21:26.185Z,35.76
2022-08-17T11:24:17.633Z,35.75
2022-08-17T11:27:03.205Z,35.83
2022-08-17T11:29:39.754Z,36.52
2022-08-17T11:32:13.682Z,36.73
2022-08-17T11:34:44.635Z,37.55
2022-08-17T11:37:43.616Z,37.88
2022-08-17T11:40:49.269Z,36.73
2022-08-17T11:44:02.012Z,34.65
2022-08-17T11:47:11.165Z,33.35
2022-08-17T11:50:33.474Z,33.53
2022-08-17T11:53:03.684Z,34.97
2022-08-17T11:56:05.909Z,35.05
2022-08-17T11:58:41.880Z,36.63
2022-08-17T12:01:16.235Z,35.97
2022-08-17T12:03:58.907Z,35.44
2022-08-17T12:06:49.286Z,36.51
2022-08-17T12:09:24.625Z,38.08
2022-08-17T12:12:11.944Z,37.56
2022-08-17T12:15:09.611Z,37.23
2022-08-17T12:17:40.254Z,37.91
2022-08-17T12:20:17.617Z,37.55
2022-08-17T12:22:56.540Z,37.20
2022-08-17T12:25:35.485Z,38.60
2022-08-17T12:28:07.601Z,38.47
2022-08-17T12:30:38.585Z,38.37
2022-08-17T12:33:25.231Z,38.12
2022-08-17T12:36:03.864Z,38.56
2022-08-17T12:38:36.031Z,38.47
2022-08-17T12:41:22.797Z,36.83
2022-08-17T12:44:01.975Z,36.99
2022-08-17T12:46:45.493Z,36.82
2022-08-17T12:49:26.449Z,37.19
2022-08-17T12:52:09.971Z,37.29
2022-08-17T12:54:50.830Z,37.61
2022-08-17T12:57:26.334Z,35.89
2022-08-17T13:00:00.869Z,36.69
2022-08-17T13:02:43.786Z,35.64
2022-08-17T13:05:30.408Z,34.91
2022-08-17T13:08:01.168Z,36.01
2022-08-17T13:10:33.449Z,36.70
2022-08-17T13:13:17.729Z,35.82
2022-08-17T13:15:56.018Z,37.36
2022-08-17T13:18:41.454Z,38.35
2022-08-17T13:21:27.794Z,38.60
2022-08-17T13:24:01.949Z,38.95
2022-08-17T13:26:36.551Z,36.61
2022-08-17T13:29:18.465Z,36.14
2022-08-17T13:31:53.020Z,36.75
2022-08-17T13:35:11.814Z,37.98
2022-08-17T13:37:33.452Z,37.88
2022-08-17T13:40:36.632Z,39.10
2022-08-17T13:43:05.568Z,38.90
2022-08-17T13:45:50.732Z,38.04
2022-08-17T13:48:30.059Z,38.37
2022-08-17T13:51:29.260Z,37.66
2022-08-17T13:54:26.899Z,37.38
2022-08-17T13:57:04.144Z,37.80
2022-08-17T13:59:53.326Z,38.35
2022-08-17T14:02:22.510Z,36.87
2022-08-17T14:04:54.352Z,36.67
2022-08-17T14:07:34.964Z,36.14
2022-08-17T14:10:12.022Z,36.93
2022-08-17T14:12:44.675Z,36.45
2022-08-17T14:15:16.791Z,35.91
2022-08-17T14:17:45.449Z,35.79
2022-08-17T14:20:15.365Z,35.55
2022-08-17T14:22:49.457Z,36.18
2022-08-17T14:25:22.767Z,37.12
2022-08-17T14:27:54.222Z,36.83
2022-08-17T14:30:26.886Z,37.23
2022-08-17T14:33:02.071Z,37.61
2022-08-17T14:35:30.649Z,37.03
2022-08-17T14:37:59.145Z,36.08
2022-08-17T14:40:28.110Z,35.84
2022-08-17T14:42:58.435Z,35.29
2022-08-17T14:45:32.242Z,36.02
2022-08-17T14:48:05.616Z,36.48
2022-08-17T14:50:35.335Z,36.23
2022-08-17T14:53:05.165Z,36.23
2022-08-17T14:55:33.704Z,35.58
2022-08-17T14:58:03.997Z,35.76
2022-08-17T15:00:32.473Z,35.57
2022-08-17T15:03:02.929Z,34.85
2022-08-17T15:05:34.488Z,35.99
2022-08-17T15:08:04.635Z,36.85
2022-08-17T15:10:34.216Z,37.64
2022-08-17T15:13:04.040Z,37.99
2022-08-17T15:15:32.672Z,38.14
2022-08-17T15:18:02.478Z,37.64
2022-08-17T15:20:31.632Z,37.94
2022-08-17T15:23:01.034Z,36.71
2022-08-17T15:25:32.971Z,36.91
2022-08-17T15:28:03.294Z,36.09
2022-08-17T15:30:32.770Z,35.72
2022-08-17T15:33:02.746Z,35.15
2022-08-17T15:35:34.805Z,35.03
2022-08-17T15:38:12.153Z,34.40
2022-08-17T15:40:45.424Z,34.48
2022-08-17T15:43:22.139Z,34.27
2022-08-17T15:46:00.798Z,34.26
2022-08-17T15:48:41.360Z,34.01
2022-08-17T15:51:12.850Z,33.90
2022-08-17T15:53:44.176Z,33.74
2022-08-17T15:56:13.667Z,33.26
2022-08-17T15:58:46.623Z,32.75
2022-08-17T16:01:45.449Z,32.36
2022-08-17T16:04:07.319Z,32.33
2022-08-17T16:06:49.901Z,32.21
2022-08-17T16:09:18.264Z,32.09
2022-08-17T16:11:46.498Z,32.49
2022-08-17T16:14:24.067Z,32.78
2022-08-17T16:16:53.090Z,32.69
2022-08-17T16:19:21.323Z,32.39
2022-08-17T16:21:49.558Z,32.15
2022-08-17T16:24:17.869Z,32.04
2022-08-17T16:26:46.463Z,31.98
2022-08-17T16:29:14.688Z,32.02
2022-08-17T16:31:44.354Z,31.85
2022-08-17T16:34:16.731Z,31.81
2022-08-17T16:36:55.043Z,31.24
2022-08-17T16:39:27.453Z,30.89
2022-08-17T16:41:56.295Z,30.53
2022-08-17T16:44:25.915Z,30.50
2022-08-17T16:46:55.981Z,30.30
2022-08-17T16:49:36.832Z,30.13
2022-08-17T16:52:11.177Z,30.44
2022-08-17T16:54:43.726Z,30.35
2022-08-17T16:57:13.652Z,30.23
2022-08-17T16:59:47.776Z,30.04
2022-08-17T17:02:27.062Z,29.95
2022-08-17T17:05:06.598Z,29.84
2022-08-17T17:07:59.181Z,29.75
2022-08-17T17:10:36.750Z,29.79
2022-08-17T17:13:12.092Z,29.66
2022-08-17T17:15:55.102Z,29.46
2022-08-17T17:18:38.858Z,29.12
2022-08-17T17:21:14.899Z,28.94
2022-08-17T17:23:53.885Z,28.82
2022-08-17T17:27:07.930Z,28.76
2022-08-17T17:29:55.518Z,28.53
2022-08-17T17:32:37.872Z,28.37
2022-08-17T17:35:15.974Z,28.17
2022-08-17T17:37:47.421Z,27.96
2022-08-17T17:40:23.065Z,27.85
2022-08-17T17:42:56.535Z,27.70
2022-08-17T17:45:31.334Z,27.54
2022-08-17T17:47:59.818Z,27.48
2022-08-17T17:50:36.057Z,27.36
2022-08-17T17:53:10.641Z,27.26
2022-08-17T17:55:55.038Z,27.15
2022-08-17T17:58:49.753Z,27.05
2022-08-17T18:01:42.198Z,26.92
2022-08-17T18:04:27.837Z,26.87
2022-08-17T18:07:22.843Z,26.77
2022-08-17T18:10:19.477Z,26.76
2022-08-17T18:13:13.443Z,26.81
2022-08-17T18:15:51.550Z,26.87
2022-08-17T18:18:40.504Z,26.75
2022-08-17T18:21:19.540Z,26.68
2022-08-17T18:23:56.335Z,26.63
2022-08-17T18:26:49.236Z,26.58
2022-08-17T18:29:45.864Z,26.51
2022-08-17T18:32:33.303Z,26.56
2022-08-17T18:35:29.082Z,26.52
2022-08-17T18:38:20.532Z,26.49
2022-08-17T18:41:16.218Z,26.48
2022-08-17T18:43:53.735Z,26.33
2022-08-17T18:46:31.717Z,26.36
2022-08-17T18:49:04.586Z,26.34
2022-08-17T18:51:41.384Z,26.32
2022-08-17T18:54:20.585Z,26.24
2022-08-17T18:56:59.022Z,26.24
2022-08-17T18:59:34.990Z,26.17
2022-08-17T19:02:41.759Z,26.14
2022-08-17T19:05:38.770Z,26.10
2022-08-17T19:08:23.559Z,26.01
2022-08-17T19:10:57.054Z,26.01
2022-08-17T19:13:36.774Z,25.90
2022-08-17T19:16:17.558Z,25.77
2022-08-17T19:18:54.387Z,25.83
2022-08-17T19:21:33.473Z,25.73
2022-08-17T19:24:11.109Z,25.57
2022-08-17T19:26:53.743Z,25.54
2022-08-17T19:29:36.801Z,25.54
2022-08-17T19:32:08.904Z,25.52
2022-08-17T19:34:44.827Z,25.47
2022-08-17T19:37:31.239Z,25.68
2022-08-17T19:40:41.748Z,25.63
2022-08-17T19:43:30.653Z,25.47
2022-08-17T19:46:20.325Z,25.38
2022-08-17T19:49:04.794Z,25.45
2022-08-17T19:51:46.257Z,25.36
2022-08-17T19:54:27.134Z,25.40
2022-08-17T19:57:04.213Z,25.32
2022-08-17T19:59:50.798Z,25.20
2022-08-17T20:02:36.732Z,25.15
2022-08-17T20:05:16.733Z,25.20
2022-08-17T20:07:56.064Z,25.17
2022-08-17T20:10:36.854Z,25.04
2022-08-17T20:13:12.673Z,25.12
2022-08-17T20:15:44.928Z,25.15
2022-08-17T20:18:32.163Z,25.18
2022-08-17T20:21:07.171Z,25.05
2022-08-17T20:23:52.129Z,25.04
2022-08-17T20:26:27.590Z,25.04
2022-08-17T20:29:40.300Z,25.04
2022-08-17T20:32:23.917Z,24.97
2022-08-17T20:35:19.299Z,24.84
2022-08-17T20:37:57.702Z,24.86
2022-08-17T20:40:35.173Z,24.91
2022-08-17T20:43:45.971Z,24.87
2022-08-17T20:46:52.814Z,24.74
2022-08-17T20:49:32.256Z,24.67
2022-08-17T20:52:08.757Z,24.60
2022-08-17T20:54:51.612Z,24.52
2022-08-17T20:57:48.975Z,24.43
2022-08-17T21:00:45.657Z,24.38
2022-08-17T21:03:51.794Z,24.38
2022-08-17T21:06:25.046Z,24.36
2022-08-17T21:09:27.946Z,24.24
2022-08-17T21:12:03.994Z,24.18
2022-08-17T21:14:59.683Z,24.23
2022-08-17T21:17:51.323Z,24.32
2022-08-17T21:20:35.671Z,24.38
2022-08-17T21:23:43.199Z,24.40
2022-08-17T21:26:31.450Z,24.47
2022-08-17T21:29:31.991Z,24.52
2022-08-17T21:32:24.266Z,24.54
2022-08-17T21:35:48.349Z,24.60
2022-08-17T21:38:21.244Z,24.63
2022-08-17T21:40:53.901Z,24.64
2022-08-17T21:43:32.002Z,24.58
2022-08-17T21:46:05.345Z,24.50
2022-08-17T21:48:44.958Z,24.53
2022-08-17T21:51:23.455Z,24.60
2022-08-17T21:53:55.841Z,24.58
2022-08-17T21:56:29.002Z,24.62
2022-08-17T21:59:02.957Z,24.63
2022-08-17T22:01:36.039Z,24.65
2022-08-17T22:04:17.726Z,24.61
2022-08-17T22:06:57.419Z,24.58
2022-08-17T22:09:29.855Z,24.58
2022-08-17T22:12:07.634Z,24.64
2022-08-17T22:14:52.129Z,24.74
2022-08-17T22:17:26.303Z,24.66
2022-08-17T22:19:59.932Z,24.65
2022-08-17T22:23:00.103Z,24.54
2022-08-17T22:25:29.587Z,24.54
2022-08-17T22:28:01.365Z,24.63
2022-08-17T22:30:40.083Z,24.66
2022-08-17T22:33:36.854Z,24.55
2022-08-17T22:36:25.267Z,24.45
2022-08-17T22:38:57.304Z,24.32
2022-08-17T22:41:44.575Z,23.82
2022-08-17T22:44:23.402Z,23.68
2022-08-17T22:47:06.690Z,23.50
2022-08-17T22:49:53.905Z,23.14
2022-08-17T22:52:57.157Z,22.86
2022-08-17T22:55:44.413Z,22.75
2022-08-17T22:58:34.823Z,22.70
2022-08-17T23:01:26.436Z,21.87
2022-08-17T23:03:58.516Z,21.35
2022-08-17T23:06:26.809Z,21.08
2022-08-17T23:08:57.623Z,20.91
2022-08-17T23:11:36.980Z,20.86
2022-08-17T23:14:19.104Z,20.88
2022-08-17T23:16:48.677Z,20.84
2022-08-17T23:19:21.667Z,20.68
2022-08-17T23:21:54.425Z,20.55
2022-08-17T23:24:27.368Z,20.26
2022-08-17T23:26:58.145Z,19.59
2022-08-17T23:29:29.463Z,19.38
2022-08-17T23:32:01.337Z,19.25
2022-08-17T23:34:31.312Z,19.29
2022-08-17T23:37:02.358Z,19.20
2022-08-17T23:39:30.903Z,18.89
2022-08-17T23:42:01.526Z,18.76
2022-08-17T23:44:30.989Z,18.44
2022-08-17T23:46:59.607Z,18.21
2022-08-17T23:49:28.706Z,18.22
2022-08-17T23:52:00.898Z,18.13
2022-08-17T23:54:35.142Z,18.06
2022-08-17T23:57:05.016Z,18.09
2022-08-17T23:59:34.012Z,18.11
